sensor_id;sensor_type;location;lat;lon;timestamp;P1;durP1;ratioP1;P2;durP2;ratioP2
67508;SDS011;54354;44.724;11.284;2023-02-26T00:01:37;85.65;;;46.08;;
67508;SDS011;54354;44.724;11.284;2023-02-26T00:04:04;91.78;;;46.53;;
67508;SDS011;54354;44.724;11.284;2023-02-26T00:06:32;84.78;;;45.80;;
67508;SDS011;54354;44.724;11.284;2023-02-26T00:09:00;85.37;;;47.23;;
67508;SDS011;54354;44.724;11.284;2023-02-26T00:11:27;92.65;;;46.85;;
67508;SDS011;54354;44.724;11.284;2023-02-26T00:13:53;80.82;;;44.30;;
67508;SDS011;54354;44.724;11.284;2023-02-26T00:16:32;85.32;;;44.03;;
67508;SDS011;54354;44.724;11.284;2023-02-26T00:19:00;81.15;;;45.83;;
67508;SDS011;54354;44.724;11.284;2023-02-26T00:21:29;80.32;;;44.67;;
67508;SDS011;54354;44.724;11.284;2023-02-26T00:23:55;80.65;;;44.42;;
67508;SDS011;54354;44.724;11.284;2023-02-26T00:26:21;90.93;;;44.47;;
67508;SDS011;54354;44.724;11.284;2023-02-26T00:28:48;76.93;;;44.28;;
67508;SDS011;54354;44.724;11.284;2023-02-26T00:31:15;87.38;;;45.25;;
67508;SDS011;54354;44.724;11.284;2023-02-26T00:33:42;81.78;;;45.38;;
67508;SDS011;54354;44.724;11.284;2023-02-26T00:36:28;94.75;;;46.50;;
67508;SDS011;54354;44.724;11.284;2023-02-26T00:39:32;92.40;;;48.05;;
67508;SDS011;54354;44.724;11.284;2023-02-26T00:42:02;91.55;;;48.03;;
67508;SDS011;54354;44.724;11.284;2023-02-26T00:44:28;87.03;;;47.03;;
67508;SDS011;54354;44.724;11.284;2023-02-26T00:52:31;105.55;;;54.17;;
67508;SDS011;54354;44.724;11.284;2023-02-26T00:55:04;109.18;;;54.60;;
67508;SDS011;54354;44.724;11.284;2023-02-26T00:57:30;113.03;;;58.08;;
67508;SDS011;54354;44.724;11.284;2023-02-26T00:59:55;117.60;;;61.90;;
67508;SDS011;54354;44.724;11.284;2023-02-26T01:02:21;120.03;;;62.40;;
67508;SDS011;54354;44.724;11.284;2023-02-26T01:04:47;117.75;;;64.57;;
67508;SDS011;54354;44.724;11.284;2023-02-26T01:07:12;122.60;;;66.30;;
67508;SDS011;54354;44.724;11.284;2023-02-26T01:09:38;126.38;;;70.65;;
67508;SDS011;54354;44.724;11.284;2023-02-26T01:12:09;141.18;;;74.43;;
67508;SDS011;54354;44.724;11.284;2023-02-26T01:14:42;146.95;;;75.50;;
67508;SDS011;54354;44.724;11.284;2023-02-26T01:17:22;148.75;;;78.47;;
67508;SDS011;54354;44.724;11.284;2023-02-26T01:20:02;141.40;;;76.03;;
67508;SDS011;54354;44.724;11.284;2023-02-26T01:22:47;165.48;;;80.75;;
67508;SDS011;54354;44.724;11.284;2023-02-26T01:25:41;157.13;;;80.18;;
67508;SDS011;54354;44.724;11.284;2023-02-26T01:28:10;171.13;;;85.97;;
67508;SDS011;54354;44.724;11.284;2023-02-26T01:30:36;168.18;;;81.28;;
67508;SDS011;54354;44.724;11.284;2023-02-26T01:35:57;175.80;;;86.28;;
67508;SDS011;54354;44.724;11.284;2023-02-26T01:38:32;178.18;;;86.60;;
67508;SDS011;54354;44.724;11.284;2023-02-26T01:49:22;174.48;;;88.28;;
67508;SDS011;54354;44.724;11.284;2023-02-26T01:54:19;177.55;;;87.85;;
67508;SDS011;54354;44.724;11.284;2023-02-26T01:56:55;181.07;;;87.93;;
67508;SDS011;54354;44.724;11.284;2023-02-26T01:59:24;178.63;;;89.60;;
67508;SDS011;54354;44.724;11.284;2023-02-26T02:01:51;180.60;;;88.60;;
67508;SDS011;54354;44.724;11.284;2023-02-26T02:04:19;175.70;;;87.45;;
67508;SDS011;54354;44.724;11.284;2023-02-26T02:06:46;189.18;;;90.63;;
67508;SDS011;54354;44.724;11.284;2023-02-26T02:09:12;181.90;;;90.13;;
67508;SDS011;54354;44.724;11.284;2023-02-26T02:11:39;187.57;;;91.03;;
67508;SDS011;54354;44.724;11.284;2023-02-26T02:14:19;172.60;;;87.50;;
67508;SDS011;54354;44.724;11.284;2023-02-26T02:17:16;182.27;;;87.70;;
67508;SDS011;54354;44.724;11.284;2023-02-26T02:27:57;178.32;;;88.85;;
67508;SDS011;54354;44.724;11.284;2023-02-26T02:33:25;177.98;;;90.68;;
67508;SDS011;54354;44.724;11.284;2023-02-26T02:35:59;197.68;;;94.40;;
67508;SDS011;54354;44.724;11.284;2023-02-26T02:38:52;192.55;;;92.57;;
67508;SDS011;54354;44.724;11.284;2023-02-26T02:41:23;187.88;;;89.53;;
67508;SDS011;54354;44.724;11.284;2023-02-26T02:43:53;181.52;;;90.88;;
67508;SDS011;54354;44.724;11.284;2023-02-26T02:46:25;185.60;;;87.07;;
67508;SDS011;54354;44.724;11.284;2023-02-26T02:49:01;187.10;;;91.43;;
67508;SDS011;54354;44.724;11.284;2023-02-26T02:51:30;185.40;;;88.90;;
67508;SDS011;54354;44.724;11.284;2023-02-26T02:54:00;198.30;;;94.28;;
67508;SDS011;54354;44.724;11.284;2023-02-26T02:56:35;189.48;;;92.30;;
67508;SDS011;54354;44.724;11.284;2023-02-26T02:59:14;174.27;;;85.65;;
67508;SDS011;54354;44.724;11.284;2023-02-26T03:01:41;99.43;;;43.50;;
67508;SDS011;54354;44.724;11.284;2023-02-26T03:04:09;24.90;;;10.88;;
67508;SDS011;54354;44.724;11.284;2023-02-26T03:06:36;21.05;;;4.70;;
67508;SDS011;54354;44.724;11.284;2023-02-26T03:09:03;13.07;;;2.88;;
67508;SDS011;54354;44.724;11.284;2023-02-26T03:11:30;18.42;;;2.50;;
67508;SDS011;54354;44.724;11.284;2023-02-26T03:13:56;12.98;;;2.28;;
67508;SDS011;54354;44.724;11.284;2023-02-26T03:19:23;16.45;;;2.30;;
67508;SDS011;54354;44.724;11.284;2023-02-26T03:25:03;14.80;;;2.20;;
67508;SDS011;54354;44.724;11.284;2023-02-26T03:30:19;9.07;;;2.00;;
67508;SDS011;54354;44.724;11.284;2023-02-26T03:38:34;25.35;;;2.40;;
67508;SDS011;54354;44.724;11.284;2023-02-26T03:41:13;16.33;;;1.88;;
67508;SDS011;54354;44.724;11.284;2023-02-26T03:43:45;7.90;;;1.30;;
67508;SDS011;54354;44.724;11.284;2023-02-26T03:46:16;9.93;;;1.60;;
67508;SDS011;54354;44.724;11.284;2023-02-26T03:48:47;11.27;;;1.45;;
67508;SDS011;54354;44.724;11.284;2023-02-26T03:51:16;6.53;;;1.48;;
67508;SDS011;54354;44.724;11.284;2023-02-26T03:54:27;9.82;;;1.30;;
67508;SDS011;54354;44.724;11.284;2023-02-26T03:56:53;9.63;;;1.40;;
67508;SDS011;54354;44.724;11.284;2023-02-26T03:59:37;7.05;;;1.10;;
67508;SDS011;54354;44.724;11.284;2023-02-26T04:02:26;7.28;;;1.10;;
67508;SDS011;54354;44.724;11.284;2023-02-26T04:05:10;7.32;;;1.10;;
67508;SDS011;54354;44.724;11.284;2023-02-26T04:07:40;7.20;;;1.20;;
67508;SDS011;54354;44.724;11.284;2023-02-26T04:10:07;6.07;;;0.98;;
67508;SDS011;54354;44.724;11.284;2023-02-26T04:12:34;4.47;;;0.90;;
67508;SDS011;54354;44.724;11.284;2023-02-26T04:15:02;5.00;;;1.05;;
67508;SDS011;54354;44.724;11.284;2023-02-26T04:17:30;4.35;;;1.00;;
67508;SDS011;54354;44.724;11.284;2023-02-26T04:19:57;9.10;;;1.15;;
67508;SDS011;54354;44.724;11.284;2023-02-26T04:22:22;12.05;;;1.10;;
67508;SDS011;54354;44.724;11.284;2023-02-26T04:24:48;7.60;;;0.90;;
67508;SDS011;54354;44.724;11.284;2023-02-26T04:27:15;6.47;;;1.00;;
67508;SDS011;54354;44.724;11.284;2023-02-26T04:29:41;4.55;;;0.80;;
67508;SDS011;54354;44.724;11.284;2023-02-26T04:32:07;2.95;;;0.80;;
67508;SDS011;54354;44.724;11.284;2023-02-26T04:34:33;5.85;;;1.02;;
67508;SDS011;54354;44.724;11.284;2023-02-26T04:36:58;7.22;;;1.20;;
67508;SDS011;54354;44.724;11.284;2023-02-26T04:39:24;3.72;;;0.93;;
67508;SDS011;54354;44.724;11.284;2023-02-26T04:41:50;5.53;;;1.10;;
67508;SDS011;54354;44.724;11.284;2023-02-26T04:44:15;6.13;;;1.10;;
67508;SDS011;54354;44.724;11.284;2023-02-26T04:46:41;8.07;;;1.23;;
67508;SDS011;54354;44.724;11.284;2023-02-26T04:49:07;9.95;;;1.23;;
67508;SDS011;54354;44.724;11.284;2023-02-26T04:51:34;9.85;;;1.33;;
67508;SDS011;54354;44.724;11.284;2023-02-26T04:53:59;14.00;;;1.50;;
67508;SDS011;54354;44.724;11.284;2023-02-26T04:56:25;12.93;;;1.45;;
67508;SDS011;54354;44.724;11.284;2023-02-26T04:58:51;10.82;;;1.50;;
67508;SDS011;54354;44.724;11.284;2023-02-26T05:01:22;11.90;;;1.80;;
67508;SDS011;54354;44.724;11.284;2023-02-26T05:03:48;9.02;;;1.45;;
67508;SDS011;54354;44.724;11.284;2023-02-26T05:06:14;12.93;;;1.85;;
67508;SDS011;54354;44.724;11.284;2023-02-26T05:08:40;14.50;;;2.10;;
67508;SDS011;54354;44.724;11.284;2023-02-26T05:11:07;18.42;;;1.90;;
67508;SDS011;54354;44.724;11.284;2023-02-26T05:13:34;15.95;;;2.15;;
67508;SDS011;54354;44.724;11.284;2023-02-26T05:15:59;12.65;;;1.67;;
67508;SDS011;54354;44.724;11.284;2023-02-26T05:18:25;12.45;;;1.67;;
67508;SDS011;54354;44.724;11.284;2023-02-26T05:20:54;14.90;;;1.67;;
67508;SDS011;54354;44.724;11.284;2023-02-26T05:23:20;13.15;;;1.63;;
67508;SDS011;54354;44.724;11.284;2023-02-26T05:25:46;10.75;;;1.60;;
67508;SDS011;54354;44.724;11.284;2023-02-26T05:28:13;9.25;;;1.52;;
67508;SDS011;54354;44.724;11.284;2023-02-26T05:30:39;8.15;;;1.60;;
67508;SDS011;54354;44.724;11.284;2023-02-26T05:33:04;19.10;;;1.90;;
67508;SDS011;54354;44.724;11.284;2023-02-26T05:35:30;15.68;;;1.98;;
67508;SDS011;54354;44.724;11.284;2023-02-26T05:37:56;9.00;;;1.60;;
67508;SDS011;54354;44.724;11.284;2023-02-26T05:40:21;10.88;;;1.70;;
67508;SDS011;54354;44.724;11.284;2023-02-26T05:42:47;13.82;;;1.90;;
67508;SDS011;54354;44.724;11.284;2023-02-26T05:45:12;14.07;;;1.83;;
67508;SDS011;54354;44.724;11.284;2023-02-26T05:47:38;11.57;;;1.75;;
67508;SDS011;54354;44.724;11.284;2023-02-26T05:50:04;10.50;;;1.67;;
67508;SDS011;54354;44.724;11.284;2023-02-26T05:52:30;14.68;;;1.75;;
67508;SDS011;54354;44.724;11.284;2023-02-26T05:54:56;8.05;;;1.60;;
67508;SDS011;54354;44.724;11.284;2023-02-26T05:57:22;11.38;;;1.60;;
67508;SDS011;54354;44.724;11.284;2023-02-26T05:59:48;10.02;;;1.65;;
67508;SDS011;54354;44.724;11.284;2023-02-26T06:02:14;9.40;;;1.35;;
67508;SDS011;54354;44.724;11.284;2023-02-26T06:04:40;9.32;;;1.35;;
67508;SDS011;54354;44.724;11.284;2023-02-26T06:07:05;6.05;;;1.10;;
67508;SDS011;54354;44.724;11.284;2023-02-26T06:09:31;4.55;;;1.00;;
67508;SDS011;54354;44.724;11.284;2023-02-26T06:11:56;5.72;;;1.00;;
67508;SDS011;54354;44.724;11.284;2023-02-26T06:14:22;4.38;;;1.00;;
67508;SDS011;54354;44.724;11.284;2023-02-26T06:16:48;6.70;;;1.08;;
67508;SDS011;54354;44.724;11.284;2023-02-26T06:19:13;4.97;;;1.00;;
67508;SDS011;54354;44.724;11.284;2023-02-26T06:21:39;4.75;;;1.00;;
67508;SDS011;54354;44.724;11.284;2023-02-26T06:24:05;5.53;;;0.98;;
67508;SDS011;54354;44.724;11.284;2023-02-26T06:26:31;7.22;;;1.30;;
67508;SDS011;54354;44.724;11.284;2023-02-26T06:28:56;6.43;;;1.10;;
67508;SDS011;54354;44.724;11.284;2023-02-26T06:31:22;6.72;;;1.10;;
67508;SDS011;54354;44.724;11.284;2023-02-26T06:33:48;10.82;;;1.10;;
67508;SDS011;54354;44.724;11.284;2023-02-26T06:36:13;8.88;;;1.23;;
67508;SDS011;54354;44.724;11.284;2023-02-26T06:38:39;9.00;;;1.30;;
67508;SDS011;54354;44.724;11.284;2023-02-26T06:41:04;6.90;;;1.10;;
67508;SDS011;54354;44.724;11.284;2023-02-26T06:43:30;5.88;;;1.10;;
67508;SDS011;54354;44.724;11.284;2023-02-26T06:45:57;5.40;;;0.95;;
67508;SDS011;54354;44.724;11.284;2023-02-26T06:48:23;6.45;;;1.00;;
67508;SDS011;54354;44.724;11.284;2023-02-26T06:50:49;5.20;;;0.80;;
67508;SDS011;54354;44.724;11.284;2023-02-26T06:53:14;4.78;;;1.00;;
67508;SDS011;54354;44.724;11.284;2023-02-26T06:55:44;3.80;;;0.82;;
67508;SDS011;54354;44.724;11.284;2023-02-26T06:58:10;6.50;;;0.95;;
67508;SDS011;54354;44.724;11.284;2023-02-26T07:00:36;7.97;;;0.90;;
67508;SDS011;54354;44.724;11.284;2023-02-26T07:03:02;9.48;;;1.23;;
67508;SDS011;54354;44.724;11.284;2023-02-26T07:05:28;6.93;;;1.02;;
67508;SDS011;54354;44.724;11.284;2023-02-26T07:07:54;3.42;;;0.88;;
67508;SDS011;54354;44.724;11.284;2023-02-26T07:10:19;5.07;;;1.00;;
67508;SDS011;54354;44.724;11.284;2023-02-26T07:12:49;3.93;;;0.80;;
67508;SDS011;54354;44.724;11.284;2023-02-26T07:15:15;3.65;;;0.90;;
67508;SDS011;54354;44.724;11.284;2023-02-26T07:17:41;4.65;;;0.90;;
67508;SDS011;54354;44.724;11.284;2023-02-26T07:20:07;7.78;;;0.80;;
67508;SDS011;54354;44.724;11.284;2023-02-26T07:22:37;7.68;;;1.27;;
67508;SDS011;54354;44.724;11.284;2023-02-26T07:25:03;7.68;;;0.90;;
67508;SDS011;54354;44.724;11.284;2023-02-26T07:27:30;4.38;;;1.13;;
67508;SDS011;54354;44.724;11.284;2023-02-26T07:29:57;6.03;;;0.93;;
67508;SDS011;54354;44.724;11.284;2023-02-26T07:32:26;4.70;;;0.77;;
67508;SDS011;54354;44.724;11.284;2023-02-26T07:34:51;2.92;;;0.70;;
67508;SDS011;54354;44.724;11.284;2023-02-26T07:37:17;4.40;;;0.70;;
67508;SDS011;54354;44.724;11.284;2023-02-26T07:39:43;23.30;;;1.52;;
67508;SDS011;54354;44.724;11.284;2023-02-26T07:42:09;3.75;;;0.50;;
67508;SDS011;54354;44.724;11.284;2023-02-26T07:44:37;2.47;;;0.65;;
67508;SDS011;54354;44.724;11.284;2023-02-26T07:47:03;3.33;;;0.57;;
67508;SDS011;54354;44.724;11.284;2023-02-26T07:49:28;2.75;;;0.50;;
67508;SDS011;54354;44.724;11.284;2023-02-26T07:51:54;4.28;;;0.65;;
67508;SDS011;54354;44.724;11.284;2023-02-26T07:54:19;5.55;;;0.93;;
67508;SDS011;54354;44.724;11.284;2023-02-26T07:56:45;3.95;;;0.70;;
67508;SDS011;54354;44.724;11.284;2023-02-26T07:59:11;4.47;;;0.80;;
67508;SDS011;54354;44.724;11.284;2023-02-26T08:01:38;3.50;;;0.70;;
67508;SDS011;54354;44.724;11.284;2023-02-26T08:04:03;4.78;;;0.70;;
67508;SDS011;54354;44.724;11.284;2023-02-26T08:06:29;2.63;;;0.60;;
67508;SDS011;54354;44.724;11.284;2023-02-26T08:08:54;2.92;;;0.77;;
67508;SDS011;54354;44.724;11.284;2023-02-26T08:11:20;2.75;;;0.70;;
67508;SDS011;54354;44.724;11.284;2023-02-26T08:13:46;4.97;;;0.80;;
67508;SDS011;54354;44.724;11.284;2023-02-26T08:16:11;3.40;;;0.70;;
67508;SDS011;54354;44.724;11.284;2023-02-26T08:18:37;3.80;;;0.82;;
67508;SDS011;54354;44.724;11.284;2023-02-26T08:30:54;6.45;;;0.90;;
67508;SDS011;54354;44.724;11.284;2023-02-26T08:33:19;10.38;;;1.25;;
67508;SDS011;54354;44.724;11.284;2023-02-26T08:35:45;8.38;;;1.10;;
67508;SDS011;54354;44.724;11.284;2023-02-26T08:38:11;5.05;;;0.90;;
67508;SDS011;54354;44.724;11.284;2023-02-26T08:40:37;6.70;;;1.33;;
67508;SDS011;54354;44.724;11.284;2023-02-26T08:43:02;6.05;;;1.00;;
67508;SDS011;54354;44.724;11.284;2023-02-26T08:45:28;20.88;;;1.80;;
67508;SDS011;54354;44.724;11.284;2023-02-26T08:47:54;7.20;;;0.80;;
67508;SDS011;54354;44.724;11.284;2023-02-26T08:50:20;4.28;;;0.70;;
67508;SDS011;54354;44.724;11.284;2023-02-26T08:52:46;8.07;;;0.90;;
67508;SDS011;54354;44.724;11.284;2023-02-26T08:55:11;3.17;;;0.90;;
67508;SDS011;54354;44.724;11.284;2023-02-26T08:57:37;6.93;;;1.17;;
67508;SDS011;54354;44.724;11.284;2023-02-26T09:00:03;7.47;;;0.93;;
67508;SDS011;54354;44.724;11.284;2023-02-26T09:02:30;6.20;;;0.75;;
67508;SDS011;54354;44.724;11.284;2023-02-26T09:04:55;4.03;;;0.70;;
67508;SDS011;54354;44.724;11.284;2023-02-26T09:07:21;2.90;;;0.70;;
67508;SDS011;54354;44.724;11.284;2023-02-26T09:09:46;2.15;;;0.70;;
67508;SDS011;54354;44.724;11.284;2023-02-26T09:12:12;1.90;;;0.80;;
67508;SDS011;54354;44.724;11.284;2023-02-26T09:14:37;7.47;;;0.52;;
67508;SDS011;54354;44.724;11.284;2023-02-26T09:17:03;2.20;;;0.63;;
67508;SDS011;54354;44.724;11.284;2023-02-26T09:19:28;3.72;;;0.60;;
67508;SDS011;54354;44.724;11.284;2023-02-26T09:21:54;3.38;;;0.80;;
67508;SDS011;54354;44.724;11.284;2023-02-26T09:24:20;2.45;;;0.57;;
67508;SDS011;54354;44.724;11.284;2023-02-26T09:26:45;9.52;;;0.70;;
67508;SDS011;54354;44.724;11.284;2023-02-26T09:29:11;9.32;;;0.80;;
67508;SDS011;54354;44.724;11.284;2023-02-26T09:31:37;5.93;;;0.82;;
67508;SDS011;54354;44.724;11.284;2023-02-26T09:34:02;4.07;;;0.80;;
67508;SDS011;54354;44.724;11.284;2023-02-26T09:36:28;5.50;;;0.80;;
67508;SDS011;54354;44.724;11.284;2023-02-26T09:38:55;5.60;;;0.90;;
67508;SDS011;54354;44.724;11.284;2023-02-26T09:41:22;4.47;;;1.00;;
67508;SDS011;54354;44.724;11.284;2023-02-26T09:44:13;4.72;;;0.88;;
67508;SDS011;54354;44.724;11.284;2023-02-26T09:46:45;2.65;;;0.70;;
67508;SDS011;54354;44.724;11.284;2023-02-26T09:52:21;11.75;;;1.30;;
67508;SDS011;54354;44.724;11.284;2023-02-26T09:55:23;3.95;;;0.80;;
67508;SDS011;54354;44.724;11.284;2023-02-26T09:57:51;4.35;;;0.57;;
67508;SDS011;54354;44.724;11.284;2023-02-26T10:11:47;3.92;;;0.75;;
67508;SDS011;54354;44.724;11.284;2023-02-26T10:14:42;3.10;;;0.50;;
67508;SDS011;54354;44.724;11.284;2023-02-26T10:19:44;1.85;;;0.50;;
67508;SDS011;54354;44.724;11.284;2023-02-26T10:25:16;2.47;;;0.52;;
67508;SDS011;54354;44.724;11.284;2023-02-26T10:30:57;2.47;;;0.60;;
67508;SDS011;54354;44.724;11.284;2023-02-26T10:33:38;4.10;;;0.60;;
67508;SDS011;54354;44.724;11.284;2023-02-26T10:36:17;3.03;;;0.82;;
67508;SDS011;54354;44.724;11.284;2023-02-26T10:38:49;2.38;;;0.60;;
67508;SDS011;54354;44.724;11.284;2023-02-26T10:41:19;2.92;;;0.60;;
67508;SDS011;54354;44.724;11.284;2023-02-26T10:43:51;8.73;;;0.80;;
67508;SDS011;54354;44.724;11.284;2023-02-26T10:46:46;3.65;;;0.93;;
67508;SDS011;54354;44.724;11.284;2023-02-26T10:51:51;7.45;;;0.65;;
67508;SDS011;54354;44.724;11.284;2023-02-26T10:57:00;4.32;;;0.60;;
67508;SDS011;54354;44.724;11.284;2023-02-26T10:59:28;3.10;;;0.70;;
67508;SDS011;54354;44.724;11.284;2023-02-26T11:01:55;3.03;;;0.60;;
67508;SDS011;54354;44.724;11.284;2023-02-26T11:04:22;2.65;;;0.68;;
67508;SDS011;54354;44.724;11.284;2023-02-26T11:06:58;3.20;;;0.67;;
67508;SDS011;54354;44.724;11.284;2023-02-26T11:09:33;8.43;;;0.93;;
67508;SDS011;54354;44.724;11.284;2023-02-26T11:14:30;2.13;;;0.60;;
67508;SDS011;54354;44.724;11.284;2023-02-26T11:16:58;3.60;;;0.95;;
67508;SDS011;54354;44.724;11.284;2023-02-26T11:19:28;2.85;;;1.00;;
67508;SDS011;54354;44.724;11.284;2023-02-26T11:21:57;8.02;;;1.05;;
67508;SDS011;54354;44.724;11.284;2023-02-26T11:24:34;4.15;;;0.90;;
67508;SDS011;54354;44.724;11.284;2023-02-26T11:27:02;4.25;;;0.90;;
67508;SDS011;54354;44.724;11.284;2023-02-26T11:29:38;2.25;;;0.90;;
67508;SDS011;54354;44.724;11.284;2023-02-26T11:32:17;5.50;;;1.23;;
67508;SDS011;54354;44.724;11.284;2023-02-26T11:34:46;7.20;;;1.25;;
67508;SDS011;54354;44.724;11.284;2023-02-26T11:37:13;4.63;;;1.27;;
67508;SDS011;54354;44.724;11.284;2023-02-26T11:39:44;131.88;;;4.07;;
67508;SDS011;54354;44.724;11.284;2023-02-26T11:42:11;4.95;;;0.90;;
67508;SDS011;54354;44.724;11.284;2023-02-26T11:44:42;3.55;;;0.90;;
67508;SDS011;54354;44.724;11.284;2023-02-26T11:47:12;6.28;;;1.17;;
67508;SDS011;54354;44.724;11.284;2023-02-26T11:49:44;7.03;;;1.30;;
67508;SDS011;54354;44.724;11.284;2023-02-26T11:52:18;8.50;;;1.17;;
67508;SDS011;54354;44.724;11.284;2023-02-26T11:54:48;4.05;;;1.42;;
67508;SDS011;54354;44.724;11.284;2023-02-26T11:57:17;6.65;;;1.27;;
67508;SDS011;54354;44.724;11.284;2023-02-26T11:59:48;5.18;;;1.13;;
67508;SDS011;54354;44.724;11.284;2023-02-26T12:02:17;3.30;;;1.13;;
67508;SDS011;54354;44.724;11.284;2023-02-26T12:04:44;3.80;;;1.15;;
67508;SDS011;54354;44.724;11.284;2023-02-26T12:07:15;12.10;;;1.48;;
67508;SDS011;54354;44.724;11.284;2023-02-26T12:09:41;6.03;;;1.35;;
67508;SDS011;54354;44.724;11.284;2023-02-26T12:12:14;4.97;;;1.15;;
67508;SDS011;54354;44.724;11.284;2023-02-26T12:17:53;6.88;;;1.52;;
67508;SDS011;54354;44.724;11.284;2023-02-26T12:20:27;10.85;;;1.77;;
67508;SDS011;54354;44.724;11.284;2023-02-26T12:42:39;7.38;;;1.83;;
67508;SDS011;54354;44.724;11.284;2023-02-26T12:45:03;6.40;;;1.70;;
67508;SDS011;54354;44.724;11.284;2023-02-26T12:47:33;8.15;;;1.40;;
67508;SDS011;54354;44.724;11.284;2023-02-26T12:50:18;21.00;;;2.10;;
67508;SDS011;54354;44.724;11.284;2023-02-26T12:58:25;5.53;;;1.30;;
67508;SDS011;54354;44.724;11.284;2023-02-26T13:01:07;4.80;;;1.30;;
67508;SDS011;54354;44.724;11.284;2023-02-26T13:07:06;5.18;;;1.40;;
67508;SDS011;54354;44.724;11.284;2023-02-26T13:15:03;11.65;;;1.77;;
67508;SDS011;54354;44.724;11.284;2023-02-26T13:20:13;8.73;;;1.52;;
67508;SDS011;54354;44.724;11.284;2023-02-26T13:22:53;8.10;;;1.75;;
67508;SDS011;54354;44.724;11.284;2023-02-26T13:25:34;11.30;;;1.60;;
67508;SDS011;54354;44.724;11.284;2023-02-26T13:28:04;3.95;;;1.17;;
67508;SDS011;54354;44.724;11.284;2023-02-26T13:30:46;8.77;;;1.60;;
67508;SDS011;54354;44.724;11.284;2023-02-26T13:33:18;9.05;;;1.50;;
67508;SDS011;54354;44.724;11.284;2023-02-26T13:35:48;9.23;;;1.70;;
67508;SDS011;54354;44.724;11.284;2023-02-26T13:38:23;8.02;;;1.50;;
67508;SDS011;54354;44.724;11.284;2023-02-26T13:49:07;10.32;;;1.77;;
67508;SDS011;54354;44.724;11.284;2023-02-26T13:52:20;5.78;;;1.33;;
67508;SDS011;54354;44.724;11.284;2023-02-26T13:54:50;5.65;;;1.30;;
67508;SDS011;54354;44.724;11.284;2023-02-26T13:57:33;5.22;;;1.40;;
67508;SDS011;54354;44.724;11.284;2023-02-26T14:00:24;7.03;;;1.38;;
67508;SDS011;54354;44.724;11.284;2023-02-26T14:11:04;7.78;;;1.60;;
67508;SDS011;54354;44.724;11.284;2023-02-26T14:14:05;7.22;;;1.60;;
67508;SDS011;54354;44.724;11.284;2023-02-26T14:16:41;10.43;;;1.52;;
67508;SDS011;54354;44.724;11.284;2023-02-26T14:21:37;10.25;;;1.83;;
67508;SDS011;54354;44.724;11.284;2023-02-26T14:24:13;10.95;;;1.80;;
67508;SDS011;54354;44.724;11.284;2023-02-26T14:26:47;7.20;;;1.30;;
67508;SDS011;54354;44.724;11.284;2023-02-26T14:29:18;12.20;;;1.80;;
67508;SDS011;54354;44.724;11.284;2023-02-26T14:36:55;7.90;;;1.55;;
67508;SDS011;54354;44.724;11.284;2023-02-26T14:44:43;5.90;;;1.40;;
67508;SDS011;54354;44.724;11.284;2023-02-26T14:47:12;5.05;;;1.25;;
67508;SDS011;54354;44.724;11.284;2023-02-26T14:49:40;7.18;;;1.60;;
67508;SDS011;54354;44.724;11.284;2023-02-26T14:52:11;6.85;;;1.42;;
67508;SDS011;54354;44.724;11.284;2023-02-26T15:06:21;8.60;;;1.38;;
67508;SDS011;54354;44.724;11.284;2023-02-26T15:25:48;5.95;;;1.60;;
67508;SDS011;54354;44.724;11.284;2023-02-26T15:28:28;8.73;;;1.80;;
67508;SDS011;54354;44.724;11.284;2023-02-26T15:30:57;7.38;;;1.80;;
67508;SDS011;54354;44.724;11.284;2023-02-26T15:33:25;5.90;;;1.63;;
67508;SDS011;54354;44.724;11.284;2023-02-26T15:35:53;9.93;;;1.58;;
67508;SDS011;54354;44.724;11.284;2023-02-26T15:38:20;3.20;;;1.23;;
67508;SDS011;54354;44.724;11.284;2023-02-26T15:40:46;8.15;;;1.30;;
67508;SDS011;54354;44.724;11.284;2023-02-26T15:43:15;6.93;;;1.23;;
67508;SDS011;54354;44.724;11.284;2023-02-26T15:45:47;3.72;;;1.30;;
67508;SDS011;54354;44.724;11.284;2023-02-26T15:48:15;4.88;;;1.35;;
67508;SDS011;54354;44.724;11.284;2023-02-26T15:50:44;5.13;;;1.30;;
67508;SDS011;54354;44.724;11.284;2023-02-26T15:53:17;6.47;;;1.38;;
67508;SDS011;54354;44.724;11.284;2023-02-26T15:55:49;7.60;;;1.40;;
67508;SDS011;54354;44.724;11.284;2023-02-26T15:58:30;4.60;;;1.40;;
67508;SDS011;54354;44.724;11.284;2023-02-26T16:00:58;6.63;;;1.38;;
67508;SDS011;54354;44.724;11.284;2023-02-26T16:03:36;4.15;;;1.20;;
67508;SDS011;54354;44.724;11.284;2023-02-26T16:06:02;11.65;;;1.60;;
67508;SDS011;54354;44.724;11.284;2023-02-26T16:08:28;3.78;;;1.40;;
67508;SDS011;54354;44.724;11.284;2023-02-26T16:10:55;3.13;;;1.52;;
67508;SDS011;54354;44.724;11.284;2023-02-26T16:13:27;5.57;;;1.40;;
67508;SDS011;54354;44.724;11.284;2023-02-26T16:16:04;5.85;;;1.50;;
67508;SDS011;54354;44.724;11.284;2023-02-26T16:18:34;5.15;;;1.50;;
67508;SDS011;54354;44.724;11.284;2023-02-26T16:21:00;3.90;;;1.23;;
67508;SDS011;54354;44.724;11.284;2023-02-26T16:23:38;4.55;;;1.60;;
67508;SDS011;54354;44.724;11.284;2023-02-26T16:26:08;3.78;;;1.35;;
67508;SDS011;54354;44.724;11.284;2023-02-26T16:28:40;4.20;;;1.30;;
67508;SDS011;54354;44.724;11.284;2023-02-26T16:31:14;7.97;;;1.70;;
67508;SDS011;54354;44.724;11.284;2023-02-26T16:33:48;6.00;;;1.60;;
67508;SDS011;54354;44.724;11.284;2023-02-26T16:36:29;7.70;;;1.65;;
67508;SDS011;54354;44.724;11.284;2023-02-26T16:41:35;4.10;;;1.48;;
67508;SDS011;54354;44.724;11.284;2023-02-26T16:44:03;7.22;;;1.88;;
67508;SDS011;54354;44.724;11.284;2023-02-26T16:46:48;9.70;;;1.80;;
67508;SDS011;54354;44.724;11.284;2023-02-26T16:49:21;4.70;;;1.48;;
67508;SDS011;54354;44.724;11.284;2023-02-26T16:51:50;7.30;;;1.73;;
67508;SDS011;54354;44.724;11.284;2023-02-26T16:54:18;5.68;;;1.55;;
67508;SDS011;54354;44.724;11.284;2023-02-26T16:56:47;8.80;;;1.98;;
67508;SDS011;54354;44.724;11.284;2023-02-26T16:59:19;5.13;;;1.60;;
67508;SDS011;54354;44.724;11.284;2023-02-26T17:04:29;8.20;;;1.95;;
67508;SDS011;54354;44.724;11.284;2023-02-26T17:07:06;5.53;;;1.80;;
67508;SDS011;54354;44.724;11.284;2023-02-26T17:09:43;7.15;;;1.75;;
67508;SDS011;54354;44.724;11.284;2023-02-26T17:12:13;27.70;;;2.58;;
67508;SDS011;54354;44.724;11.284;2023-02-26T17:14:42;10.80;;;1.50;;
67508;SDS011;54354;44.724;11.284;2023-02-26T17:17:09;5.95;;;1.85;;
67508;SDS011;54354;44.724;11.284;2023-02-26T17:19:35;7.28;;;1.73;;
67508;SDS011;54354;44.724;11.284;2023-02-26T17:22:01;8.77;;;1.73;;
67508;SDS011;54354;44.724;11.284;2023-02-26T17:24:32;6.35;;;1.88;;
67508;SDS011;54354;44.724;11.284;2023-02-26T17:27:05;4.10;;;1.67;;
67508;SDS011;54354;44.724;11.284;2023-02-26T17:29:36;8.65;;;2.00;;
67508;SDS011;54354;44.724;11.284;2023-02-26T17:32:03;11.10;;;1.77;;
67508;SDS011;54354;44.724;11.284;2023-02-26T17:34:31;8.82;;;1.80;;
67508;SDS011;54354;44.724;11.284;2023-02-26T17:36:57;7.60;;;1.90;;
67508;SDS011;54354;44.724;11.284;2023-02-26T17:39:24;9.35;;;1.70;;
67508;SDS011;54354;44.724;11.284;2023-02-26T17:41:49;7.22;;;1.65;;
67508;SDS011;54354;44.724;11.284;2023-02-26T17:44:15;4.80;;;1.65;;
67508;SDS011;54354;44.724;11.284;2023-02-26T17:46:41;5.68;;;1.50;;
67508;SDS011;54354;44.724;11.284;2023-02-26T17:49:08;5.35;;;1.42;;
67508;SDS011;54354;44.724;11.284;2023-02-26T17:51:35;5.30;;;1.70;;